Time;durP1;ratioP1;P1;durP2;ratioP2;P2;SDS_P1;SDS_P2;PMS_P1;PMS_P2;Temp;Humidity;BMP_temperature;BMP_pressure;BME280_temperature;BME280_humidity;BME280_pressure;Samples;Min_cycle;Max_cycle;Signal;HPM_P1;HPM_P2
2021/12/14 00:01:56;;;;;;;39.40;15.40;;;;;;;0.68;100.00;100828.08;99294;1345;72631;-68
2021/12/14 00:04:46;;;;;;;46.30;17.30;;;;;;;0.69;100.00;100825.27;99249;1351;67226;-68
2021/12/14 00:07:36;;;;;;;38.60;15.30;;;;;;;0.73;100.00;100823.41;99262;1350;73224;-68
2021/12/14 00:13:45;;;;;;;32.40;12.30;;;;;;;0.80;100.00;100818.70;99489;1348;60572;-69
2021/12/14 00:16:34;;;;;;;35.70;14.30;;;;;;;0.83;100.00;100817.41;99627;1344;73630;-69
2021/12/14 00:19:28;;;;;;;34.60;12.60;;;;;;;0.85;100.00;100808.80;99536;1345;68443;-69
2021/12/14 00:24:05;;;;;;;30.30;11.30;;;;;;;0.87;100.00;100807.88;99236;1351;73498;-69
2021/12/14 00:25:49;;;;;;;41.70;17.10;;;;;;;0.91;100.00;100801.45;99480;1345;59912;-68
2021/12/14 00:28:39;;;;;;;34.60;13.40;;;;;;;0.95;100.00;100802.26;99401;1345;60628;-69
2021/12/14 00:31:29;;;;;;;25.60;11.30;;;;;;;0.97;100.00;100800.63;99946;1340;73419;-68
2021/12/14 00:34:33;;;;;;;33.60;13.20;;;;;;;0.98;100.00;100800.58;100137;1337;68358;-68
2021/12/14 00:37:36;;;;;;;29.90;10.20;;;;;;;1.01;100.00;100799.11;100033;1337;73078;-68
2021/12/14 00:40:38;;;;;;;32.60;14.30;;;;;;;1.04;100.00;100794.48;100061;1339;59721;-67
2021/12/14 00:43:28;;;;;;;33.70;14.40;;;;;;;1.09;100.00;100791.91;99890;1341;61027;-67
2021/12/14 00:46:18;;;;;;;27.20;12.10;;;;;;;1.12;100.00;100793.92;99923;1337;74678;-68
2021/12/14 00:49:12;;;;;;;26.80;11.70;;;;;;;1.13;100.00;100790.93;99244;1336;1003164;-67
2021/12/14 00:52:05;;;;;;;32.00;12.90;;;;;;;1.12;100.00;100797.95;100318;1339;73049;-67
2021/12/14 00:54:54;;;;;;;27.30;11.20;;;;;;;1.14;100.00;100799.31;100025;1340;59823;-67
2021/12/14 00:57:45;;;;;;;29.60;12.40;;;;;;;1.15;100.00;100798.39;100133;1337;59794;-68
2021/12/14 01:00:41;;;;;;;27.40;10.20;;;;;;;1.18;100.00;100794.64;100200;1341;73514;-68
2021/12/14 01:03:34;;;;;;;23.90;11.20;;;;;;;1.18;100.00;100790.63;99920;1336;68385;-68
2021/12/14 01:06:28;;;;;;;31.40;12.10;;;;;;;1.16;100.00;100791.90;100025;1336;73120;-67
2021/12/14 01:09:25;;;;;;;27.40;11.70;;;;;;;1.15;100.00;100796.30;100057;1339;59730;-67
2021/12/14 01:12:33;;;;;;;25.70;10.70;;;;;;;1.18;100.00;100801.28;99883;1336;60603;-68
2021/12/14 01:15:52;;;;;;;23.30;8.70;;;;;;;1.22;100.00;100812.89;100214;1337;72382;-67
2021/12/14 01:18:50;;;;;;;22.60;8.60;;;;;;;1.23;100.00;100804.31;100085;1333;67373;-68
2021/12/14 01:28:15;;;;;;;24.70;10.40;;;;;;;1.29;100.00;100798.89;99935;1342;61096;-67
2021/12/14 01:31:22;;;;;;;32.90;10.50;;;;;;;1.31;100.00;100793.58;99975;1341;73557;-68
2021/12/14 01:34:21;;;;;;;20.70;9.40;;;;;;;1.35;100.00;100787.16;100159;1337;68259;-67
2021/12/14 01:37:18;;;;;;;26.40;11.40;;;;;;;1.36;100.00;100779.83;99830;1340;71982;-67
2021/12/14 01:40:18;;;;;;;27.80;11.00;;;;;;;1.37;100.00;100778.73;99994;1340;59857;-67
2021/12/14 01:43:09;;;;;;;21.80;10.20;;;;;;;1.40;100.00;100783.20;100212;1334;60748;-68
2021/12/14 01:46:04;;;;;;;24.00;9.60;;;;;;;1.42;100.00;100779.85;99874;1340;73454;-68
2021/12/14 01:48:54;;;;;;;24.20;9.90;;;;;;;1.43;100.00;100778.39;100096;1337;68925;-68
2021/12/14 01:52:17;;;;;;;21.60;9.30;;;;;;;1.45;100.00;100771.70;100311;1336;70952;-68
2021/12/14 01:55:22;;;;;;;27.30;10.70;;;;;;;1.46;100.00;100766.77;99974;1337;59682;-67
2021/12/14 01:58:12;;;;;;;19.10;9.00;;;;;;;1.49;100.00;100762.98;99903;1337;59899;-67
2021/12/14 02:01:18;;;;;;;24.30;11.00;;;;;;;1.51;100.00;100758.23;99838;1336;73213;-67
2021/12/14 02:04:24;;;;;;;19.30;8.80;;;;;;;1.52;100.00;100757.15;100111;1337;68832;-67
2021/12/14 02:07:20;;;;;;;21.80;9.20;;;;;;;1.49;100.00;100747.77;100143;1336;71708;-67
2021/12/14 02:10:22;;;;;;;23.60;10.20;;;;;;;1.50;100.00;100739.54;99740;1340;59738;-67
2021/12/14 02:13:11;;;;;;;26.70;10.50;;;;;;;1.51;100.00;100741.43;100071;1336;59699;-67
2021/12/14 02:16:03;;;;;;;22.90;9.50;;;;;;;1.54;100.00;100738.55;100059;1337;72445;-68
2021/12/14 02:19:15;;;;;;;26.40;10.60;;;;;;;1.57;100.00;100734.95;100148;1340;66626;-68
2021/12/14 02:22:08;;;;;;;23.40;10.20;;;;;;;1.59;100.00;100735.41;99798;1337;71759;-68
2021/12/14 02:24:58;;;;;;;25.30;10.70;;;;;;;1.60;100.00;100727.19;99782;1339;59777;-68
2021/12/14 02:27:50;;;;;;;25.80;11.80;;;;;;;1.61;100.00;100725.75;99937;1337;60744;-68
2021/12/14 02:30:42;;;;;;;26.90;10.20;;;;;;;1.64;100.00;100723.92;99823;1340;73846;-68
2021/12/14 02:33:37;;;;;;;21.30;9.70;;;;;;;1.63;100.00;100720.45;100050;1337;68347;-68
2021/12/14 02:36:33;;;;;;;23.60;10.30;;;;;;;1.62;100.00;100720.81;100054;1336;73113;-68
2021/12/14 02:42:33;;;;;;;26.50;11.90;;;;;;;1.63;100.00;100719.91;100197;1336;60403;-68
2021/12/14 02:45:23;;;;;;;27.60;12.20;;;;;;;1.64;100.00;100719.52;99869;1337;73960;-67
2021/12/14 02:48:13;;;;;;;25.30;11.10;;;;;;;1.67;100.00;100717.70;100099;1336;68747;-68
2021/12/14 02:51:14;;;;;;;22.70;10.00;;;;;;;1.68;100.00;100721.84;99889;1337;73455;-67
2021/12/14 02:54:18;;;;;;;26.80;12.30;;;;;;;1.67;100.00;100716.13;100266;1335;59779;-67
2021/12/14 02:57:20;;;;;;;23.70;10.70;;;;;;;1.65;100.00;100721.78;99752;1340;59759;-68
2021/12/14 03:00:24;;;;;;;23.80;10.80;;;;;;;1.65;100.00;100721.24;99800;1337;73273;-67
2021/12/14 03:03:20;;;;;;;24.80;11.00;;;;;;;1.64;100.00;100713.60;100144;1337;68723;-68
2021/12/14 03:06:15;;;;;;;28.70;11.50;;;;;;;1.64;100.00;100711.48;100047;1336;72194;-67
2021/12/14 03:09:19;;;;;;;24.00;10.00;;;;;;;1.65;100.00;100710.95;100082;1337;59821;-67
2021/12/14 03:12:16;;;;;;;26.60;12.10;;;;;;;1.65;100.00;100705.66;100157;1337;59800;-68
2021/12/14 03:15:18;;;;;;;26.70;10.90;;;;;;;1.67;100.00;100696.02;99921;1342;71697;-68
2021/12/14 03:18:11;;;;;;;24.50;10.00;;;;;;;1.67;100.00;100695.29;100901;1336;67073;-68
2021/12/14 03:21:10;;;;;;;25.20;10.80;;;;;;;1.67;100.00;100694.96;100050;1340;70649;-68
2021/12/14 03:24:18;;;;;;;24.20;10.40;;;;;;;1.65;100.00;100691.86;100157;1327;59728;-67
2021/12/14 03:27:10;;;;;;;28.50;12.10;;;;;;;1.62;100.00;100684.08;100176;1337;60467;-67
2021/12/14 03:30:27;;;;;;;23.10;8.80;;;;;;;1.62;100.00;100686.38;100217;1336;73810;-67
2021/12/14 03:33:23;;;;;;;26.10;11.20;;;;;;;1.60;100.00;100684.51;98786;1343;1003719;-67
2021/12/14 03:36:20;;;;;;;27.50;11.90;;;;;;;1.57;100.00;100685.30;99849;1339;73234;-67
2021/12/14 03:39:12;;;;;;;31.00;12.60;;;;;;;1.57;100.00;100688.09;99790;1339;60540;-67
2021/12/14 03:42:15;;;;;;;26.90;12.00;;;;;;;1.57;100.00;100691.75;100019;1344;60762;-68
2021/12/14 03:45:19;;;;;;;25.20;10.70;;;;;;;1.58;100.00;100689.83;99832;1340;71821;-68
2021/12/14 03:48:09;;;;;;;25.90;11.60;;;;;;;1.58;100.00;100686.31;99811;1345;68524;-68
2021/12/14 03:51:01;;;;;;;28.10;12.10;;;;;;;1.55;100.00;100682.02;99868;1336;73123;-69
2021/12/14 03:53:53;;;;;;;28.90;11.40;;;;;;;1.53;100.00;100675.79;100102;1336;59851;-69
2021/12/14 03:56:43;;;;;;;36.80;13.00;;;;;;;1.52;100.00;100670.02;99737;1339;60797;-69
2021/12/14 03:59:33;;;;;;;26.20;9.70;;;;;;;1.53;100.00;100667.55;100101;1340;71456;-69
2021/12/14 04:02:24;;;;;;;30.40;11.50;;;;;;;1.53;100.00;100666.17;100009;1341;68282;-68
2021/12/14 04:05:14;;;;;;;30.40;12.40;;;;;;;1.55;100.00;100669.77;100213;1337;72078;-69
2021/12/14 04:08:07;;;;;;;27.60;11.00;;;;;;;1.56;100.00;100672.19;100151;1336;59741;-68
2021/12/14 04:11:01;;;;;;;28.10;10.20;;;;;;;1.57;100.00;100666.07;99997;1337;60606;-68
2021/12/14 04:13:54;;;;;;;28.30;11.20;;;;;;;1.58;100.00;100661.11;100023;1337;73590;-68
2021/12/14 04:16:52;;;;;;;27.20;11.30;;;;;;;1.60;100.00;100656.70;100415;1337;67391;-68
2021/12/14 04:19:42;;;;;;;26.70;11.30;;;;;;;1.61;100.00;100652.81;99914;1336;71962;-68
2021/12/14 04:22:33;;;;;;;21.60;8.00;;;;;;;1.64;100.00;100653.95;99948;1341;59776;-68
2021/12/14 04:25:29;;;;;;;32.10;12.70;;;;;;;1.64;100.00;100647.63;100087;1330;59893;-68
2021/12/14 04:28:29;;;;;;;26.40;11.10;;;;;;;1.64;100.00;100642.23;100036;1337;72606;-68
2021/12/14 04:31:22;;;;;;;33.00;13.30;;;;;;;1.62;100.00;100635.10;100148;1339;68564;-68
2021/12/14 04:34:17;;;;;;;30.90;12.70;;;;;;;1.62;100.00;100624.95;99800;1340;72944;-68
2021/12/14 04:37:06;;;;;;;27.10;10.70;;;;;;;1.63;100.00;100626.17;99872;1336;59786;-68
2021/12/14 04:40:15;;;;;;;25.60;10.90;;;;;;;1.61;100.00;100621.66;100332;1340;60425;-69
2021/12/14 04:53:35;;;;;;;24.60;9.50;;;;;;;1.66;100.00;100609.25;100031;1337;59846;-68
2021/12/14 04:56:35;;;;;;;34.00;14.00;;;;;;;1.63;100.00;100608.13;100336;1337;59454;-69
2021/12/14 04:59:31;;;;;;;30.70;11.80;;;;;;;1.58;100.00;100601.64;99998;1340;71039;-71
2021/12/14 05:02:31;;;;;;;27.10;12.10;;;;;;;1.59;100.00;100601.60;100021;1337;67061;-70
2021/12/14 05:05:39;;;;;;;28.00;10.80;;;;;;;1.59;100.00;100604.59;100165;1336;71740;-69
2021/12/14 05:11:24;;;;;;;26.60;10.90;;;;;;;1.55;100.00;100599.14;99899;1337;60882;-69
2021/12/14 05:14:13;;;;;;;31.90;12.30;;;;;;;1.55;100.00;100595.44;100009;1337;72310;-69
2021/12/14 05:17:12;;;;;;;29.80;11.80;;;;;;;1.55;100.00;100597.36;99798;1340;66329;-69
2021/12/14 05:20:11;;;;;;;28.20;11.20;;;;;;;1.56;100.00;100592.61;99920;1336;71818;-69
2021/12/14 05:23:01;;;;;;;26.30;11.10;;;;;;;1.57;100.00;100591.73;100126;1340;59866;-69
2021/12/14 05:25:55;;;;;;;25.20;10.30;;;;;;;1.55;100.00;100585.98;99895;1337;59733;-69
2021/12/14 05:28:45;;;;;;;28.50;12.00;;;;;;;1.55;100.00;100587.93;100205;1338;71186;-68
2021/12/14 05:31:50;;;;;;;29.80;12.90;;;;;;;1.54;100.00;100586.90;100144;1342;68425;-70
2021/12/14 05:34:42;;;;;;;27.10;12.10;;;;;;;1.57;100.00;100597.11;99918;1340;515330;-68
2021/12/14 05:37:35;;;;;;;25.10;11.70;;;;;;;1.59;100.00;100605.82;99778;1337;59815;-68
2021/12/14 05:43:30;;;;;;;29.10;11.80;;;;;;;1.63;100.00;100605.70;100433;1340;73605;-69
2021/12/14 05:46:29;;;;;;;23.10;10.10;;;;;;;1.67;100.00;100594.36;100243;1336;67532;-68
2021/12/14 05:49:44;;;;;;;24.80;10.80;;;;;;;1.69;100.00;100596.56;99917;1337;71755;-68
2021/12/14 05:52:33;;;;;;;30.70;13.30;;;;;;;1.71;100.00;100591.26;99893;1339;59754;-68
2021/12/14 05:55:37;;;;;;;26.00;11.30;;;;;;;1.72;100.00;100590.70;99837;1340;59709;-67
2021/12/14 05:58:27;;;;;;;26.00;10.50;;;;;;;1.73;100.00;100592.77;99886;1342;72139;-69
2021/12/14 06:01:21;;;;;;;30.40;12.20;;;;;;;1.75;100.00;100590.42;99924;1336;68250;-67
2021/12/14 06:04:10;;;;;;;29.70;13.20;;;;;;;1.76;100.00;100590.94;99865;1340;73176;-69
2021/12/14 06:07:00;;;;;;;29.00;11.00;;;;;;;1.74;100.00;100584.36;100290;1340;60237;-68
2021/12/14 06:09:51;;;;;;;29.20;12.30;;;;;;;1.75;100.00;100584.50;100180;1336;59686;-67
2021/12/14 06:12:47;;;;;;;32.00;13.80;;;;;;;1.75;100.00;100580.30;99811;1340;72438;-67
2021/12/14 06:15:37;;;;;;;32.10;14.10;;;;;;;1.75;100.00;100581.36;100135;1340;67159;-67
2021/12/14 06:18:38;;;;;;;32.00;13.50;;;;;;;1.76;100.00;100583.58;100142;1337;73216;-70
2021/12/14 06:21:36;;;;;;;27.80;10.90;;;;;;;1.77;100.00;100585.98;99842;1337;59956;-68
2021/12/14 06:24:30;;;;;;;31.00;13.30;;;;;;;1.78;100.00;100587.18;99938;1337;59778;-68
2021/12/14 06:27:25;;;;;;;31.00;13.20;;;;;;;1.79;100.00;100590.30;100088;1336;73683;-68
2021/12/14 06:30:26;;;;;;;32.30;13.90;;;;;;;1.80;100.00;100594.45;100329;1337;66807;-67
2021/12/14 06:33:20;;;;;;;31.70;13.80;;;;;;;1.82;100.00;100594.23;100337;1337;73184;-68
2021/12/14 06:36:51;;;;;;;28.60;13.10;;;;;;;1.84;100.00;100587.17;100081;1337;59937;-68
2021/12/14 06:40:12;;;;;;;25.90;11.60;;;;;;;1.85;100.00;100583.27;100284;1336;59764;-68
2021/12/14 06:43:09;;;;;;;31.60;14.20;;;;;;;1.83;100.00;100587.18;100453;1334;73482;-68
2021/12/14 06:46:07;;;;;;;33.80;13.60;;;;;;;1.85;100.00;100592.04;100211;1340;68852;-67
2021/12/14 06:49:04;;;;;;;33.50;14.40;;;;;;;1.87;100.00;100595.48;100014;1343;73644;-68
2021/12/14 06:51:56;;;;;;;31.40;13.20;;;;;;;1.89;100.00;100602.23;100015;1339;59824;-68
2021/12/14 06:55:20;;;;;;;30.50;13.30;;;;;;;1.89;100.00;100603.98;100177;1337;59802;-68
2021/12/14 06:58:45;;;;;;;22.50;9.70;;;;;;;1.90;100.00;100604.47;100241;1337;73442;-67
2021/12/14 07:01:51;;;;;;;28.80;12.50;;;;;;;1.94;100.00;100607.14;99897;1340;68722;-67
2021/12/14 07:04:49;;;;;;;29.10;12.30;;;;;;;2.00;100.00;100609.03;100413;1337;73434;-69
2021/12/14 07:07:39;;;;;;;26.40;10.20;;;;;;;2.05;100.00;100612.02;100476;1336;59937;-68
2021/12/14 07:10:39;;;;;;;25.30;10.10;;;;;;;2.09;100.00;100612.75;100470;1341;60791;-69
2021/12/14 07:13:42;;;;;;;26.20;10.00;;;;;;;2.11;100.00;100611.46;100451;1337;75091;-69
2021/12/14 07:16:37;;;;;;;26.30;10.80;;;;;;;2.16;100.00;100613.39;100396;1336;68397;-69
2021/12/14 07:19:46;;;;;;;26.40;10.90;;;;;;;2.19;100.00;100615.39;100286;1340;73088;-68
2021/12/14 07:22:56;;;;;;;24.90;10.40;;;;;;;2.22;100.00;100616.70;100151;1334;59782;-69
2021/12/14 07:25:57;;;;;;;23.40;11.00;;;;;;;2.25;100.00;100616.60;100178;1331;59644;-69
2021/12/14 07:28:46;;;;;;;26.00;10.30;;;;;;;2.27;100.00;100616.16;100493;1338;71044;-69
2021/12/14 07:31:41;;;;;;;25.80;10.20;;;;;;;2.29;100.00;100616.80;100247;1333;67676;-68
2021/12/14 07:34:31;;;;;;;25.00;12.10;;;;;;;2.30;100.00;100615.03;100243;1337;71196;-68
2021/12/14 07:37:35;;;;;;;26.00;11.50;;;;;;;2.32;100.00;100606.39;100367;1335;59827;-69
2021/12/14 07:40:58;;;;;;;28.50;12.10;;;;;;;2.34;100.00;100600.89;100239;1337;60757;-74
2021/12/14 07:44:39;;;;;;;26.20;11.40;;;;;;;2.36;100.00;100590.45;99131;1352;599984;-73
2021/12/14 07:47:31;;;;;;;26.10;11.40;;;;;;;2.36;100.00;100592.20;102320;1319;59397;-73
2021/12/14 07:50:57;;;;;;;26.50;11.20;;;;;;;2.39;100.00;100597.73;101992;1317;61141;-68
2021/12/14 07:53:54;;;;;;;27.40;11.50;;;;;;;2.42;100.00;100600.45;102164;1316;71055;-68
2021/12/14 07:56:50;;;;;;;25.60;10.80;;;;;;;2.43;100.00;100595.83;102205;1316;68330;-66
2021/12/14 07:59:43;;;;;;;32.30;13.10;;;;;;;2.45;100.00;100595.93;102011;1319;71864;-67
2021/12/14 08:02:39;;;;;;;26.50;11.10;;;;;;;2.48;100.00;100600.39;102068;1313;59279;-69
2021/12/14 08:05:34;;;;;;;29.20;12.00;;;;;;;2.51;100.00;100600.80;102543;1319;60493;-68
2021/12/14 08:08:40;;;;;;;27.90;12.10;;;;;;;2.52;100.00;100604.08;102473;1319;71415;-69
2021/12/14 08:14:29;;;;;;;29.10;13.00;;;;;;;2.52;100.00;100601.11;99499;1313;1003879;-69
2021/12/14 08:17:21;;;;;;;33.80;14.00;;;;;;;2.53;100.00;100600.55;102290;1319;59412;-70
2021/12/14 08:20:22;;;;;;;31.60;13.60;;;;;;;2.54;100.00;100601.38;102034;1319;60867;-68
2021/12/14 08:23:33;;;;;;;27.40;12.50;;;;;;;2.53;100.00;100595.48;102320;1316;70340;-69
2021/12/14 08:26:31;;;;;;;27.10;12.80;;;;;;;2.52;100.00;100594.10;101934;1316;67332;-70
2021/12/14 08:29:26;;;;;;;32.30;14.40;;;;;;;2.52;100.00;100599.37;101487;1317;1003214;-68
2021/12/14 08:32:20;;;;;;;32.90;14.00;;;;;;;2.51;100.00;100601.15;102159;1319;59297;-69
2021/12/14 08:35:13;;;;;;;35.10;15.70;;;;;;;2.54;100.00;100602.61;102191;1313;60702;-68
2021/12/14 08:38:05;;;;;;;33.70;13.90;;;;;;;2.58;100.00;100607.23;102205;1316;71768;-68
2021/12/14 08:41:07;;;;;;;30.20;13.60;;;;;;;2.61;100.00;100603.77;102016;1314;68663;-68
2021/12/14 08:43:57;;;;;;;33.10;15.30;;;;;;;2.62;100.00;100602.68;102108;1313;71895;-67
2021/12/14 08:46:49;;;;;;;30.70;14.70;;;;;;;2.65;100.00;100609.08;102372;1317;59308;-68
2021/12/14 08:49:42;;;;;;;31.00;13.30;;;;;;;2.68;100.00;100607.19;102447;1319;59443;-67
2021/12/14 08:52:31;;;;;;;27.70;12.50;;;;;;;2.72;100.00;100607.42;101943;1316;71981;-69
2021/12/14 08:55:22;;;;;;;29.10;12.80;;;;;;;2.77;100.00;100609.84;101911;1319;68351;-68
2021/12/14 08:58:13;;;;;;;28.10;13.30;;;;;;;2.84;100.00;100610.83;101937;1317;73368;-67
2021/12/14 09:01:11;;;;;;;28.00;13.60;;;;;;;2.86;100.00;100617.22;101866;1314;60851;-68
2021/12/14 09:04:08;;;;;;;27.00;13.40;;;;;;;2.88;100.00;100611.04;101915;1317;60880;-69
2021/12/14 09:07:12;;;;;;;27.70;13.80;;;;;;;2.96;100.00;100607.05;102264;1317;70388;-71
2021/12/14 09:10:10;;;;;;;24.20;11.70;;;;;;;3.03;100.00;100601.17;102088;1319;67191;-71
2021/12/14 09:13:06;;;;;;;25.20;13.20;;;;;;;3.11;100.00;100592.98;102310;1313;73083;-69
2021/12/14 09:16:09;;;;;;;26.70;11.90;;;;;;;3.14;100.00;100586.23;102616;1313;59422;-68
2021/12/14 09:19:30;;;;;;;27.60;13.80;;;;;;;3.15;100.00;100579.86;102398;1317;59326;-69
2021/12/14 09:22:41;;;;;;;24.60;12.30;;;;;;;3.22;100.00;100573.81;102261;1317;71675;-69
2021/12/14 09:25:31;;;;;;;25.70;12.10;;;;;;;3.28;100.00;100570.77;101892;1316;68239;-69
2021/12/14 09:28:21;;;;;;;25.30;12.50;;;;;;;3.36;100.00;100567.45;102092;1317;73419;-68
2021/12/14 09:31:16;;;;;;;22.70;12.20;;;;;;;3.45;100.00;100562.04;101707;1317;59404;-68
2021/12/14 09:34:10;;;;;;;21.80;10.50;;;;;;;3.48;100.00;100555.77;101581;1316;60497;-68
2021/12/14 09:37:01;;;;;;;21.10;10.40;;;;;;;3.46;100.00;100549.55;101815;1320;69139;-70
2021/12/14 09:39:57;;;;;;;24.20;12.30;;;;;;;3.41;100.00;100545.85;101789;1316;68163;-69
2021/12/14 09:42:50;;;;;;;18.40;9.70;;;;;;;3.36;100.00;100533.28;102082;1319;73200;-70
2021/12/14 09:45:47;;;;;;;20.60;10.80;;;;;;;3.42;100.00;100545.48;103206;1313;59334;-69
2021/12/14 09:48:48;;;;;;;19.80;10.10;;;;;;;3.46;100.00;100549.21;102161;1313;60722;-69
2021/12/14 09:52:00;;;;;;;18.20;8.80;;;;;;;3.53;100.00;100551.17;102455;1313;71806;-69
2021/12/14 09:54:52;;;;;;;19.50;9.70;;;;;;;3.67;100.00;100553.77;102321;1313;67998;-69
2021/12/14 09:57:57;;;;;;;18.40;10.60;;;;;;;3.83;100.00;100551.17;102275;1313;73681;-69
2021/12/14 10:01:08;;;;;;;20.70;10.60;;;;;;;3.98;100.00;100549.84;102723;1313;59327;-70
2021/12/14 10:04:05;;;;;;;20.30;10.10;;;;;;;4.15;100.00;100543.35;102161;1317;60649;-69
2021/12/14 10:06:58;;;;;;;18.90;9.50;;;;;;;4.28;100.00;100544.52;102186;1316;70487;-69
2021/12/14 10:09:51;;;;;;;15.90;8.60;;;;;;;4.39;100.00;100543.52;102324;1316;66994;-70
2021/12/14 10:12:50;;;;;;;16.00;8.80;;;;;;;4.47;100.00;100540.89;102396;1313;72998;-70
2021/12/14 10:15:51;;;;;;;15.70;8.70;;;;;;;4.57;99.59;100535.87;102107;1313;59435;-69
2021/12/14 10:18:53;;;;;;;16.90;8.90;;;;;;;4.71;99.63;100537.50;102433;1313;60456;-69
2021/12/14 10:21:56;;;;;;;18.70;8.70;;;;;;;4.87;98.84;100538.53;102212;1317;70523;-69
2021/12/14 10:24:45;;;;;;;18.30;8.20;;;;;;;4.94;98.14;100536.98;102280;1313;67016;-69
2021/12/14 10:27:36;;;;;;;17.70;9.10;;;;;;;5.02;97.79;100539.41;101889;1313;70810;-69
2021/12/14 10:30:33;;;;;;;16.70;7.90;;;;;;;5.08;97.62;100530.36;102119;1319;59417;-69
2021/12/14 10:33:25;;;;;;;14.80;7.30;;;;;;;5.08;96.67;100535.42;102353;1313;59866;-69
2021/12/14 10:36:29;;;;;;;14.70;8.10;;;;;;;5.01;96.39;100536.48;101958;1313;69520;-68
2021/12/14 10:39:38;;;;;;;15.50;7.90;;;;;;;4.88;96.76;100534.63;102443;1310;66705;-70
2021/12/14 10:43:54;;;;;;;16.30;8.70;;;;;;;4.74;96.97;100541.77;102254;1314;71068;-69
2021/12/14 10:46:00;;;;;;;17.80;8.80;;;;;;;4.67;97.58;100534.17;102128;1319;59435;-68
2021/12/14 10:48:51;;;;;;;17.20;9.00;;;;;;;4.56;97.86;100526.39;102283;1319;59465;-69
2021/12/14 10:51:46;;;;;;;19.20;9.50;;;;;;;4.50;98.21;100526.31;102223;1313;70537;-69
2021/12/14 10:54:35;;;;;;;19.50;9.70;;;;;;;4.49;98.64;100527.98;102264;1319;68253;-69
2021/12/14 10:57:31;;;;;;;20.60;9.90;;;;;;;4.52;99.11;100528.86;102140;1313;73426;-68
2021/12/14 11:00:42;;;;;;;21.20;10.90;;;;;;;4.56;98.78;100527.29;102143;1313;59412;-69
2021/12/14 11:03:42;;;;;;;25.30;12.50;;;;;;;4.56;98.79;100514.27;102264;1317;59609;-70
2021/12/14 11:06:34;;;;;;;23.00;12.00;;;;;;;4.56;98.80;100512.70;102473;1316;71765;-69
2021/12/14 11:09:43;;;;;;;22.70;11.60;;;;;;;4.56;98.86;100515.15;102223;1313;68262;-70
2021/12/14 11:12:38;;;;;;;23.40;11.30;;;;;;;4.56;99.14;100509.54;102071;1313;70876;-69
2021/12/14 11:15:47;;;;;;;23.50;11.20;;;;;;;4.49;99.07;100512.13;102229;1314;59396;-69
2021/12/14 11:18:37;;;;;;;26.90;12.80;;;;;;;4.39;99.42;100517.15;102237;1319;60063;-69
2021/12/14 11:21:25;;;;;;;29.60;13.30;;;;;;;4.32;99.80;100513.23;102523;1313;72026;-70
2021/12/14 11:24:14;;;;;;;27.30;12.90;;;;;;;4.26;99.97;100513.00;102298;1313;66845;-68
2021/12/14 11:27:22;;;;;;;26.70;12.80;;;;;;;4.17;99.99;100507.91;102282;1316;72947;-69
2021/12/14 11:30:22;;;;;;;25.20;11.40;;;;;;;4.11;100.00;100509.45;102476;1313;59453;-69
2021/12/14 11:33:28;;;;;;;30.70;14.30;;;;;;;4.03;100.00;100503.28;102333;1314;61157;-68
2021/12/14 11:36:43;;;;;;;30.80;14.90;;;;;;;4.00;100.00;100502.16;102204;1314;70351;-69
2021/12/14 11:39:41;;;;;;;25.00;11.10;;;;;;;4.00;100.00;100496.38;102387;1313;68587;-68
2021/12/14 11:42:30;;;;;;;29.90;14.50;;;;;;;3.95;100.00;100499.41;103103;1316;70687;-70
2021/12/14 11:45:22;;;;;;;26.80;12.90;;;;;;;3.90;100.00;100498.92;102589;1313;60049;-69
2021/12/14 11:48:12;;;;;;;30.40;13.60;;;;;;;3.86;100.00;100492.42;102293;1313;59622;-69
2021/12/14 11:51:05;;;;;;;25.70;12.10;;;;;;;3.84;100.00;100482.86;102369;1317;71839;-69
2021/12/14 11:53:58;;;;;;;31.20;12.30;;;;;;;3.79;100.00;100477.47;102378;1304;66820;-69
2021/12/14 11:56:49;;;;;;;34.40;14.80;;;;;;;3.76;100.00;100472.82;102294;1314;73244;-70
2021/12/14 11:59:39;;;;;;;31.90;13.30;;;;;;;3.78;100.00;100470.11;102206;1313;59522;-69
2021/12/14 12:02:29;;;;;;;31.90;13.70;;;;;;;3.86;100.00;100470.66;102272;1313;59289;-69
2021/12/14 12:05:30;;;;;;;30.50;14.10;;;;;;;3.92;100.00;100470.21;102272;1313;71697;-69
2021/12/14 12:11:43;;;;;;;30.60;13.70;;;;;;;4.01;100.00;100477.73;102082;1313;72948;-68
2021/12/14 12:14:59;;;;;;;29.10;11.30;;;;;;;4.00;100.00;100475.13;102258;1314;59430;-68
2021/12/14 12:17:58;;;;;;;30.50;14.20;;;;;;;3.96;100.00;100467.59;102618;1313;59982;-69
2021/12/14 12:20:49;;;;;;;33.90;15.00;;;;;;;3.92;100.00;100458.96;102382;1316;69744;-69
2021/12/14 12:23:42;;;;;;;31.00;14.30;;;;;;;3.93;100.00;100457.01;102192;1313;68634;-69
2021/12/14 12:26:31;;;;;;;33.30;15.50;;;;;;;3.96;100.00;100454.56;102566;1316;72605;-69
2021/12/14 12:29:26;;;;;;;33.20;14.90;;;;;;;4.00;100.00;100455.14;102817;1314;59270;-69
2021/12/14 12:32:28;;;;;;;29.80;14.50;;;;;;;4.02;100.00;100455.59;102215;1313;59727;-69
2021/12/14 12:36:02;;;;;;;33.40;16.10;;;;;;;4.04;100.00;100456.86;102514;1316;71942;-69
2021/12/14 12:38:59;;;;;;;31.60;14.30;;;;;;;4.07;100.00;100463.41;102132;1319;68787;-70
2021/12/14 12:41:57;;;;;;;34.90;16.20;;;;;;;4.11;100.00;100463.08;101530;1320;71281;-69
2021/12/14 12:44:45;;;;;;;35.20;16.40;;;;;;;4.11;100.00;100460.09;102068;1325;59567;-69
2021/12/14 12:47:34;;;;;;;32.00;15.30;;;;;;;4.11;100.00;100466.24;101569;1324;59578;-69
2021/12/14 13:00:44;;;;;;;34.00;16.20;;;;;;;4.06;100.00;100476.45;103973;1303;71673;-70
2021/12/14 13:03:53;;;;;;;31.70;15.00;;;;;;;4.00;100.00;100479.00;102430;1317;59799;-68
2021/12/14 13:06:41;;;;;;;31.10;16.50;;;;;;;3.96;100.00;100482.20;102296;1316;59574;-68
2021/12/14 13:09:30;;;;;;;30.20;15.80;;;;;;;3.95;100.00;100484.50;102070;1316;72774;-68
2021/12/14 13:13:00;;;;;;;26.50;12.90;;;;;;;3.96;100.00;100481.80;101750;1313;66244;-69
2021/12/14 13:16:13;;;;;;;29.70;14.90;;;;;;;3.95;100.00;100474.45;101778;1316;71304;-69
2021/12/14 13:19:11;;;;;;;25.20;12.20;;;;;;;3.95;100.00;100479.95;101228;1317;1003033;-69
2021/12/14 13:22:07;;;;;;;28.90;14.00;;;;;;;3.93;100.00;100483.34;101771;1319;59667;-69
2021/12/14 13:24:56;;;;;;;26.50;13.00;;;;;;;3.93;100.00;100489.31;101975;1317;72847;-68
2021/12/14 13:27:45;;;;;;;25.70;13.10;;;;;;;3.93;100.00;100497.22;101465;1318;68088;-69
2021/12/14 13:30:34;;;;;;;27.90;14.50;;;;;;;3.92;100.00;100492.84;101809;1317;72317;-68
2021/12/14 13:33:28;;;;;;;25.00;12.50;;;;;;;3.90;100.00;100486.64;101910;1319;59502;-69
2021/12/14 13:36:17;;;;;;;25.00;12.40;;;;;;;3.88;100.00;100494.44;102218;1316;59656;-69
2021/12/14 13:39:10;;;;;;;27.80;13.30;;;;;;;3.84;100.00;100494.45;101971;1316;70927;-69
2021/12/14 13:41:59;;;;;;;24.90;12.80;;;;;;;3.84;100.00;100493.77;101733;1317;67392;-69
2021/12/14 13:44:52;;;;;;;26.40;13.90;;;;;;;3.80;100.00;100484.42;101728;1317;73117;-69
2021/12/14 13:47:42;;;;;;;26.80;12.00;;;;;;;3.78;100.00;100487.52;102037;1316;59426;-69
2021/12/14 13:50:36;;;;;;;27.90;12.20;;;;;;;3.72;100.00;100496.15;102126;1316;59418;-69
2021/12/14 13:53:25;;;;;;;27.70;13.90;;;;;;;3.69;100.00;100504.91;101819;1316;70190;-68
2021/12/14 13:56:34;;;;;;;23.80;12.30;;;;;;;3.66;100.00;100504.33;101828;1317;67020;-69
2021/12/14 13:59:22;;;;;;;31.00;14.30;;;;;;;3.65;100.00;100504.03;101803;1317;71615;-70
2021/12/14 14:02:12;;;;;;;24.70;11.60;;;;;;;3.64;100.00;100510.56;102202;1316;59324;-69
2021/12/14 14:05:04;;;;;;;26.80;12.80;;;;;;;3.62;100.00;100514.66;101815;1317;60659;-68
2021/12/14 14:08:05;;;;;;;29.00;13.80;;;;;;;3.61;100.00;100511.39;101813;1316;71181;-69